.
WxDataArchive / Data Records for 2006-12-16
2006-12-15 December 2006 2006-12-17

Data Records for Saturday, 16 December 2006

Time	Temp	Chill	HIndex	Humid	Dewpt	 Wind 	HiWind	WindDir	Rain 	Barom 
-----	----	-----	------	-----	-----	------	------	-------	-----	----- 
00:00	27.8	27.8	27.8	89	25.0	0	0	---	0.00	30.024 
00:05	27.6	27.6	27.6	89	24.8	0	0	---	0.00	30.024 
00:10	27.6	27.6	27.6	89	24.8	0	0	---	0.00	30.024 
00:15	27.5	27.5	27.5	89	24.7	0	0	---	0.00	30.027 
00:20	27.3	27.3	27.3	89	24.5	0	0	---	0.00	30.027 
00:25	27.5	27.5	27.5	90	25.0	0	0	---	0.00	30.027 
00:30	27.3	27.3	27.3	90	24.8	0	0	---	0.00	30.032 
00:35	27.3	27.3	27.3	90	24.8	0	0	---	0.00	30.032 
00:40	27.3	27.3	27.3	90	24.8	0	0	---	0.00	30.032 
00:45	27.2	27.2	27.2	90	24.7	0	0	---	0.00	30.031 
00:50	27.0	27.0	27.0	90	24.5	0	0	---	0.00	30.031 
00:55	27.0	27.0	27.0	90	24.5	0	0	---	0.00	30.031 
01:00	27.0	27.0	27.0	90	24.5	0	0	---	0.00	30.037 
01:05	27.0	27.0	27.0	91	24.7	0	0	---	0.00	30.037 
01:10	27.0	27.0	27.0	91	24.7	0	0	---	0.00	30.037 
01:15	27.0	27.0	27.0	91	24.7	0	0	---	0.00	30.036 
01:20	27.0	27.0	27.0	91	24.7	0	0	---	0.00	30.036 
01:25	27.0	27.0	27.0	91	24.7	0	0	---	0.00	30.036 
01:30	27.0	27.0	27.0	91	24.7	0	0	---	0.00	30.043 
01:35	27.0	27.0	27.0	91	24.7	0	0	---	0.00	30.043 
01:40	27.0	27.0	27.0	91	24.7	0	0	---	0.00	30.043 
01:45	27.0	27.0	27.0	91	24.7	0	0	---	0.00	30.051 
01:50	27.0	27.0	27.0	91	24.7	0	0	---	0.00	30.051 
01:55	27.0	27.0	27.0	91	24.7	0	0	---	0.00	30.051 
02:00	26.9	26.9	26.9	91	24.6	0	0	---	0.00	30.054 
02:05	26.9	26.9	26.9	91	24.6	0	0	---	0.00	30.054 
02:10	26.9	26.9	26.9	91	24.6	0	0	---	0.00	30.054 
02:15	27.0	27.0	27.0	91	24.7	0	0	---	0.00	30.052 
02:20	27.2	27.2	27.2	92	25.2	0	0	---	0.00	30.052 
02:25	27.3	27.3	27.3	92	25.3	0	0	---	0.00	30.052 
02:30	27.6	27.6	27.6	92	25.6	0	0	---	0.00	30.052 
02:35	27.8	27.8	27.8	92	25.8	0	0	---	0.00	30.052 
02:40	27.8	27.8	27.8	92	25.8	0	0	---	0.00	30.052 
02:45	28.1	28.1	28.1	93	26.3	0	1	270	0.00	30.050 
02:50	28.4	28.4	28.4	93	26.6	0	1	270	0.00	30.050 
02:55	28.7	28.7	28.7	93	26.9	0	0	---	0.00	30.050 
03:00	28.5	28.5	28.5	92	26.5	0	0	---	0.00	30.051 
03:05	28.5	28.5	28.5	92	26.5	0	0	---	0.00	30.051 
03:10	28.4	28.4	28.4	92	26.4	0	0	---	0.00	30.051 
03:15	28.4	28.4	28.4	92	26.4	0	0	---	0.00	30.042 
03:20	28.2	28.2	28.2	92	26.2	0	0	---	0.00	30.042 
03:25	28.1	28.1	28.1	92	26.1	0	0	---	0.00	30.042 
03:30	28.1	28.1	28.1	92	26.1	0	0	---	0.00	30.040 
03:35	27.9	27.9	27.9	92	25.9	0	0	---	0.00	30.040 
03:40	27.9	27.9	27.9	92	25.9	0	0	---	0.00	30.040 
03:45	27.8	27.8	27.8	92	25.8	0	0	---	0.00	30.042 
03:50	27.6	27.6	27.6	92	25.6	0	0	---	0.00	30.042 
03:55	27.5	27.5	27.5	92	25.5	0	0	---	0.00	30.042 
04:00	27.3	27.3	27.3	92	25.3	0	0	---	0.00	30.044 
04:05	27.2	27.2	27.2	92	25.2	0	0	---	0.00	30.044 
04:10	27.0	27.0	27.0	92	25.0	0	0	---	0.00	30.044 
04:15	27.0	27.0	27.0	92	25.0	0	0	---	0.00	30.038 
04:20	27.0	27.0	27.0	92	25.0	0	0	---	0.00	30.038 
04:25	26.9	26.9	26.9	92	24.9	0	0	---	0.00	30.038 
04:30	26.7	26.7	26.7	92	24.7	0	0	---	0.00	30.039 
04:35	26.6	26.6	26.6	92	24.6	0	0	---	0.00	30.039 
04:40	26.4	26.4	26.4	92	24.4	0	0	---	0.00	30.039 
04:45	26.3	26.3	26.3	92	24.3	0	0	---	0.00	30.039 
04:50	26.1	26.1	26.1	92	24.1	0	0	---	0.00	30.039 
04:55	26.0	26.0	26.0	92	24.0	0	0	---	0.00	30.039 
05:00	26.0	26.0	26.0	92	24.0	0	0	---	0.00	30.039 
05:05	26.0	26.0	26.0	92	24.0	0	0	---	0.00	30.039 
05:10	26.0	26.0	26.0	92	24.0	0	0	---	0.00	30.039 
05:15	25.8	25.8	25.8	92	23.8	0	0	---	0.00	30.043 
05:20	26.0	26.0	26.0	92	24.0	0	0	---	0.00	30.043 
05:25	26.0	26.0	26.0	92	24.0	0	0	---	0.00	30.043 
05:30	26.1	26.1	26.1	92	24.1	0	0	---	0.00	30.039 
05:35	26.3	26.3	26.3	93	24.6	0	1	270	0.00	30.039 
05:40	26.6	26.6	26.6	93	24.9	0	1	270	0.00	30.039 
05:45	26.9	26.9	26.9	93	25.2	0	0	---	0.00	30.043 
05:50	26.9	26.9	26.9	93	25.2	0	0	---	0.00	30.043 
05:55	26.9	26.9	26.9	93	25.2	0	0	---	0.00	30.043 
06:00	27.0	27.0	27.0	93	25.3	0	0	---	0.00	30.047 
06:05	27.2	27.2	27.2	93	25.4	0	1	270	0.00	30.047 
06:10	27.3	27.3	27.3	93	25.5	0	0	---	0.00	30.047 
06:15	27.3	27.3	27.3	93	25.5	0	0	---	0.00	30.049 
06:20	27.2	27.2	27.2	93	25.4	0	0	---	0.00	30.049 
06:25	27.2	27.2	27.2	93	25.4	0	1	270	0.00	30.049 
06:30	27.2	27.2	27.2	93	25.4	0	0	---	0.00	30.047 
06:35	27.2	27.2	27.2	93	25.4	0	0	---	0.00	30.047 
06:40	27.3	27.3	27.3	93	25.5	0	0	---	0.00	30.047 
06:45	27.2	27.2	27.2	93	25.4	0	0	---	0.00	30.046 
06:50	27.0	27.0	27.0	93	25.3	0	0	---	0.00	30.046 
06:55	27.0	27.0	27.0	93	25.3	0	0	---	0.00	30.046 
07:00	27.0	27.0	27.0	93	25.3	0	1	270	0.00	30.055 
07:05	27.3	27.3	27.3	93	25.5	0	1	270	0.00	30.055 
07:10	27.5	27.5	27.5	93	25.7	0	1	270	0.00	30.055 
07:15	27.8	27.8	27.8	93	26.0	0	1	270	0.00	30.051 
07:20	28.1	28.1	28.1	93	26.3	0	1	270	0.00	30.051 
07:25	28.1	28.1	28.1	93	26.3	0	1	270	0.00	30.051 
07:30	28.2	28.2	28.2	93	26.4	0	1	270	0.00	30.045 
07:35	28.2	28.2	28.2	93	26.4	0	1	270	0.00	30.045 
07:40	28.4	28.4	28.4	93	26.6	0	2	270	0.00	30.045 
07:45	28.7	28.7	28.7	93	26.9	0	1	270	0.00	30.044 
07:50	28.8	28.8	28.8	92	26.8	0	0	---	0.00	30.044 
07:55	28.8	28.8	28.8	92	26.8	0	1	270	0.00	30.044 
08:00	29.0	29.0	29.0	92	27.0	0	1	270	0.00	30.052 
08:05	29.1	29.1	29.1	92	27.1	0	1	270	0.00	30.052 
08:10	29.1	29.1	29.1	91	26.8	0	0	---	0.00	30.052 
08:15	29.1	29.1	29.1	91	26.8	0	0	---	0.00	30.064 
08:20	29.1	29.1	29.1	91	26.8	0	0	---	0.00	30.064 
08:25	29.1	29.1	29.1	91	26.8	0	0	---	0.00	30.064 
08:30	29.3	29.3	29.3	91	27.0	0	1	270	0.00	30.063 
08:35	29.5	29.5	29.5	91	27.2	0	1	270	0.00	30.063 
08:40	29.8	29.8	29.8	90	27.2	0	1	270	0.00	30.063 
08:45	30.0	30.0	30.0	90	27.4	0	1	270	0.00	30.059 
08:50	30.3	30.3	30.3	90	27.7	0	1	270	0.00	30.059 
08:55	30.9	30.9	30.9	90	28.3	0	2	292	0.00	30.059 
09:00	31.3	31.3	31.3	89	28.4	0	2	0	0.00	30.058 
09:05	31.6	31.6	31.6	89	28.7	0	1	45	0.00	30.058 
09:10	32.1	32.1	32.1	88	29.0	1	2	112	0.00	30.058 
09:15	32.4	32.4	32.4	88	29.3	1	3	135	0.00	30.057 
09:20	32.8	32.8	32.8	87	29.4	1	3	112	0.00	30.057 
09:25	33.1	33.1	33.1	87	29.7	1	2	135	0.00	30.057 
09:30	33.5	33.5	33.5	86	29.8	1	3	90	0.00	30.060 
09:35	34.0	34.0	34.0	85	30.0	2	4	112	0.00	30.060 
09:40	34.3	34.3	34.3	84	30.0	1	3	135	0.00	30.060 
09:45	34.6	34.6	34.6	83	30.0	1	4	112	0.00	30.058 
09:50	34.9	34.9	34.9	83	30.3	1	4	90	0.00	30.058 
09:55	35.0	35.0	35.0	83	30.4	1	4	112	0.00	30.058 
10:00	35.3	35.3	35.3	82	30.4	1	5	112	0.00	30.054 
10:05	35.6	35.6	35.6	82	30.7	1	5	90	0.00	30.054 
10:10	35.9	35.9	35.9	81	30.6	2	5	112	0.00	30.054 
10:15	36.0	36.0	36.0	80	30.4	2	6	112	0.00	30.055 
10:20	36.3	36.3	36.3	80	30.7	2	7	112	0.00	30.055 
10:25	36.6	36.6	36.6	79	30.7	3	7	112	0.00	30.055 
10:30	36.9	36.9	36.9	79	31.0	2	6	112	0.00	30.057 
10:35	37.2	37.2	37.2	78	31.0	2	5	112	0.00	30.057 
10:40	37.6	37.6	37.6	78	31.4	2	5	90	0.00	30.057 
10:45	37.9	37.9	37.9	77	31.3	2	5	112	0.00	30.049 
10:50	38.2	38.2	38.2	77	31.6	2	5	112	0.00	30.049 
10:55	38.5	38.5	38.5	76	31.6	2	4	112	0.00	30.049 
11:00	38.8	38.8	38.8	75	31.6	2	5	112	0.00	30.040 
11:05	39.1	39.1	39.1	75	31.9	2	5	112	0.00	30.040 
11:10	39.3	39.3	39.3	74	31.7	2	7	112	0.00	30.040 
11:15	39.6	39.6	39.6	74	32.0	2	5	112	0.00	30.035 
11:20	40.1	40.1	40.1	74	32.5	2	4	112	0.00	30.035 
11:25	40.2	40.2	40.2	74	32.6	2	4	112	0.00	30.035 
11:30	40.6	40.6	40.6	73	32.6	2	6	112	0.00	30.027 
11:35	41.1	41.1	41.1	72	32.8	1	3	90	0.00	30.027 
11:40	41.3	41.3	41.3	71	32.6	1	3	112	0.00	30.027 
11:45	41.6	41.6	41.6	70	32.6	2	7	112	0.00	30.014 
11:50	41.9	41.9	41.9	71	33.2	1	3	135	0.00	30.014 
11:55	42.2	42.2	42.2	70	33.1	2	6	90	0.00	30.014 
12:00	42.3	42.3	42.3	69	32.9	2	7	112	0.00	30.007 
12:05	42.8	42.8	42.8	68	33.0	2	4	112	0.00	30.007 
12:10	43.2	43.2	43.2	69	33.7	2	4	112	0.00	30.007 
12:15	43.8	43.8	43.8	69	34.3	1	4	135	0.00	29.995 
12:20	44.1	44.1	44.1	67	33.9	2	4	112	0.00	29.995 
12:25	44.3	44.3	44.3	68	34.4	1	4	90	0.00	29.995 
12:30	44.8	44.8	44.8	66	34.1	2	5	112	0.00	29.989 
12:35	45.2	45.2	45.2	65	34.1	1	5	112	0.00	29.989 
12:40	45.5	45.5	45.5	64	34.0	2	5	112	0.00	29.989 
12:45	46.0	46.0	46.0	64	34.5	2	6	112	0.00	29.975 
12:50	46.4	46.4	46.4	64	34.9	1	4	90	0.00	29.975 
12:55	46.8	46.8	46.8	63	34.9	1	5	112	0.00	29.975 
13:00	47.3	47.3	47.3	62	34.9	2	5	90	0.00	29.971 
13:05	47.6	47.6	47.6	61	34.8	2	6	90	0.00	29.971 
13:10	48.0	48.0	48.0	61	35.2	2	6	90	0.00	29.971 
13:15	48.3	48.3	48.3	61	35.5	2	7	90	0.00	29.969 
13:20	48.6	48.6	48.6	63	36.6	1	4	270	0.00	29.969 
13:25	49.1	49.1	49.1	61	36.2	2	5	90	0.00	29.969 
13:30	49.4	49.4	49.4	62	36.9	2	5	90	0.00	29.954 
13:35	49.8	49.8	49.8	61	36.9	1	5	112	0.00	29.954 
13:40	50.2	50.2	50.2	61	37.3	2	4	112	0.00	29.954 
13:45	50.5	50.5	50.5	59	36.7	2	5	90	0.00	29.937 
13:50	50.7	50.7	50.7	60	37.3	3	10	90	0.00	29.937 
13:55	51.0	51.0	51.0	59	37.2	2	5	112	0.00	29.937 
14:00	51.1	51.1	51.1	59	37.3	1	5	112	0.00	29.937 
14:05	51.3	51.3	51.3	60	37.9	2	3	112	0.00	29.937 
14:10	51.4	51.4	51.4	60	38.0	1	5	135	0.00	29.937 
14:15	51.4	51.4	51.4	60	38.0	2	6	112	0.00	29.932 
14:20	51.4	51.4	51.4	60	38.0	3	6	112	0.00	29.932 
14:25	51.6	51.6	51.6	61	38.6	2	6	90	0.00	29.932 
14:30	51.6	51.6	51.6	61	38.6	1	5	158	0.00	29.921 
14:35	51.6	51.6	51.6	61	38.6	2	6	135	0.00	29.921 
14:40	51.4	51.4	51.4	61	38.4	2	7	112	0.00	29.921 
14:45	51.4	51.4	51.4	62	38.8	2	5	112	0.00	29.917 
14:50	51.3	51.3	51.3	63	39.1	1	4	112	0.00	29.917 
14:55	51.3	51.3	51.3	62	38.7	2	5	112	0.00	29.917 
15:00	51.3	51.3	51.3	63	39.1	2	5	112	0.00	29.908 
15:05	51.3	51.3	51.3	63	39.1	2	5	112	0.00	29.908 
15:10	51.3	51.3	51.3	64	39.5	2	3	135	0.00	29.908 
15:15	51.3	51.3	51.3	63	39.1	2	5	112	0.00	29.907 
15:20	51.3	51.3	51.3	63	39.1	2	5	112	0.00	29.907 
15:25	51.3	51.3	51.3	63	39.1	2	5	112	0.00	29.907 
15:30	51.3	51.3	51.3	64	39.5	2	6	135	0.00	29.911 
15:35	51.4	51.4	51.4	64	39.6	1	5	112	0.00	29.911 
15:40	51.4	51.4	51.4	64	39.6	1	3	135	0.00	29.911 
15:45	51.4	51.4	51.4	65	40.0	1	4	112	0.00	29.909 
15:50	51.4	51.4	51.4	65	40.0	1	3	112	0.00	29.909 
15:55	51.4	51.4	51.4	65	40.0	1	5	135	0.00	29.909 
16:00	51.4	51.4	51.4	66	40.4	1	3	135	0.00	29.911 
16:05	51.4	51.4	51.4	66	40.4	1	2	112	0.00	29.911 
16:10	51.4	51.4	51.4	66	40.4	1	4	112	0.00	29.911 
16:15	51.6	51.6	51.6	66	40.6	1	2	90	0.00	29.905 
16:20	51.6	51.6	51.6	66	40.6	1	3	135	0.00	29.905 
16:25	51.9	51.9	51.9	66	40.9	1	3	112	0.00	29.905 
16:30	52.0	52.0	52.0	67	41.4	1	2	112	0.00	29.901 
16:35	52.0	52.0	52.0	67	41.4	1	3	112	0.00	29.901 
16:40	52.2	52.2	52.2	66	41.2	1	4	90	0.00	29.901 
16:45	52.5	52.5	52.5	66	41.5	2	4	112	0.00	29.894 
16:50	52.5	52.5	52.5	66	41.5	1	3	112	0.00	29.894 
16:55	52.6	52.6	52.6	66	41.6	2	5	112	0.00	29.894 
17:00	52.6	52.6	52.6	66	41.6	2	4	112	0.00	29.893 
17:05	52.8	52.8	52.8	66	41.8	1	4	90	0.00	29.893 
17:10	52.9	52.9	52.9	66	41.9	2	5	112	0.00	29.893 
17:15	52.9	52.9	52.9	66	41.9	2	5	135	0.00	29.890 
17:20	52.9	52.9	52.9	66	41.9	1	3	112	0.00	29.890 
17:25	52.8	52.8	52.8	67	42.1	1	2	135	0.00	29.890 
17:30	52.8	52.8	52.8	67	42.1	1	5	112	0.00	29.898 
17:35	52.9	52.9	52.9	67	42.2	1	5	90	0.00	29.898 
17:40	53.1	53.1	53.1	67	42.4	2	4	112	0.00	29.898 
17:45	53.2	53.2	53.2	66	42.1	2	6	112	0.00	29.892 
17:50	53.3	53.3	53.3	66	42.2	2	5	112	0.00	29.892 
17:55	53.3	53.3	53.3	66	42.2	2	6	112	0.00	29.892 
18:00	53.3	53.3	53.3	66	42.2	2	6	112	0.00	29.891 
18:05	53.3	53.3	53.3	66	42.2	2	9	112	0.00	29.891 
18:10	53.5	53.5	53.5	66	42.4	2	7	68	0.00	29.891 
18:15	53.5	53.5	53.5	66	42.4	3	6	90	0.00	29.889 
18:20	53.3	53.3	53.3	66	42.2	2	5	112	0.00	29.889 
18:25	53.3	53.3	53.3	66	42.2	2	10	90	0.00	29.889 
18:30	53.3	53.3	53.3	66	42.2	2	7	90	0.00	29.888 
18:35	53.3	53.3	53.3	66	42.2	2	5	90	0.00	29.888 
18:40	53.3	53.3	53.3	67	42.6	2	9	112	0.00	29.888 
18:45	53.2	53.2	53.2	67	42.5	2	5	68	0.00	29.890 
18:50	53.2	53.2	53.2	67	42.5	2	10	112	0.00	29.890 
18:55	53.2	53.2	53.2	67	42.5	2	11	68	0.00	29.890 
19:00	53.2	53.2	53.2	68	42.9	2	6	90	0.00	29.896 
19:05	53.1	53.1	53.1	69	43.2	2	5	90	0.00	29.896 
19:10	52.9	52.9	52.9	69	43.0	2	4	90	0.00	29.896 
19:15	52.9	52.9	52.9	69	43.0	1	6	248	0.00	29.891 
19:20	52.8	52.8	52.8	70	43.3	1	2	0	0.00	29.891 
19:25	52.8	52.8	52.8	70	43.3	1	4	270	0.00	29.891 
19:30	52.8	52.8	52.8	70	43.3	1	4	248	0.00	29.894 
19:35	52.8	52.8	52.8	71	43.7	1	4	270	0.00	29.894 
19:40	52.8	52.8	52.8	71	43.7	1	4	270	0.00	29.894 
19:45	52.8	52.8	52.8	72	44.0	1	5	270	0.00	29.899 
19:50	52.8	52.8	52.8	72	44.0	1	3	248	0.00	29.899 
19:55	52.8	52.8	52.8	72	44.0	2	10	248	0.00	29.899 
20:00	52.8	52.8	52.8	73	44.4	1	4	270	0.00	29.900 
20:05	52.8	52.8	52.8	73	44.4	2	5	248	0.00	29.900 
20:10	52.8	52.8	52.8	73	44.4	2	6	248	0.00	29.900 
20:15	52.9	52.9	52.9	74	44.8	2	5	248	0.00	29.904 
20:20	52.9	52.9	52.9	74	44.8	1	4	248	0.00	29.904 
20:25	53.1	53.1	53.1	75	45.4	2	4	248	0.00	29.904 
20:30	53.2	53.2	53.2	76	45.8	1	5	248	0.00	29.909 
20:35	53.3	53.3	53.3	77	46.3	2	6	248	0.00	29.909 
20:40	53.5	53.5	53.5	77	46.5	2	6	248	0.00	29.909 
20:45	53.8	53.8	53.8	77	46.8	3	7	248	0.00	29.914 
20:50	53.9	53.9	53.9	78	47.2	2	6	248	0.00	29.914 
20:55	54.1	54.1	54.1	79	47.7	3	7	248	0.00	29.914 
21:00	54.2	54.2	54.2	79	47.8	3	6	248	0.00	29.916 
21:05	54.2	54.2	54.2	80	48.2	3	6	248	0.00	29.916 
21:10	54.4	54.4	54.4	81	48.7	3	7	248	0.00	29.916 
21:15	54.4	54.4	54.4	81	48.7	3	7	248	0.00	29.912 
21:20	54.5	54.5	54.5	81	48.8	3	5	248	0.00	29.912 
21:25	54.5	54.5	54.5	82	49.1	3	9	248	0.00	29.912 
21:30	54.5	54.5	54.5	82	49.1	3	6	270	0.00	29.920 
21:35	54.7	54.7	54.7	82	49.3	3	7	248	0.00	29.920 
21:40	54.8	54.8	54.8	82	49.4	3	6	248	0.00	29.920 
21:45	54.8	54.8	54.8	83	49.7	3	7	248	0.00	29.917 
21:50	55.0	55.0	55.0	83	49.9	3	10	248	0.00	29.917 
21:55	55.1	55.1	55.1	84	50.4	4	12	248	0.00	29.917 
22:00	55.4	55.4	55.4	84	50.6	3	7	248	0.00	29.913 
22:05	55.4	55.4	55.4	84	50.6	4	9	248	0.00	29.913 
22:10	55.6	55.6	55.6	83	50.5	5	11	248	0.00	29.913 
22:15	55.7	55.7	55.7	84	50.9	4	9	248	0.00	29.921 
22:20	55.7	55.7	55.7	84	50.9	4	11	270	0.00	29.921 
22:25	55.7	55.7	55.7	84	50.9	4	11	248	0.00	29.921 
22:30	55.9	55.9	55.9	84	51.1	5	11	248	0.00	29.920 
22:35	55.9	55.9	55.9	84	51.1	3	6	248	0.00	29.920 
22:40	55.7	55.7	55.7	84	50.9	3	7	248	0.00	29.920 
22:45	55.7	55.7	55.7	84	50.9	4	14	248	0.00	29.919 
22:50	55.9	55.9	55.9	84	51.1	4	11	248	0.00	29.919 
22:55	55.9	55.9	55.9	84	51.1	4	10	248	0.00	29.919 
23:00	55.9	55.9	55.9	84	51.1	3	7	248	0.00	29.920 
23:05	55.7	55.7	55.7	84	50.9	3	10	248	0.00	29.920 
23:10	55.7	55.7	55.7	84	50.9	3	9	248	0.00	29.920 
23:15	55.7	55.7	55.7	84	50.9	3	7	248	0.00	29.918 
23:20	55.7	55.7	55.7	84	50.9	4	10	248	0.00	29.918 
23:25	55.9	55.9	55.9	84	51.1	3	7	248	0.00	29.918 
23:30	55.9	55.9	55.9	84	51.1	3	11	248	0.00	29.918 
23:35	55.9	55.9	55.9	84	51.1	4	9	248	0.00	29.918 
23:40	55.9	55.9	55.9	84	51.1	3	8	248	0.00	29.918 
23:45	55.9	55.9	55.9	84	51.1	3	6	248	0.00	29.913 
23:50	55.9	55.9	55.9	84	51.1	3	6	248	0.00	29.913 
23:55	55.9	55.9	55.9	85	51.5	3	7	248	0.00	29.913 

CoCoRaHS
IN-AL-39
A2 Web Hosting
Creative Commons License
GoDaddy
Look for:

loaded 2017-12-11 14:06:14 • last modified 2010-11-18 10:43:29
Privacy PolicyDisclaimer
• wx.awcolley.com is powered by PmWiki v.2002016 •
• all content (unless otherwise noted) © 2017 A W Colley